sensor_id;sensor_type;location;lat;lon;timestamp;pressure;altitude;pressure_sealevel;temperature;humidity
76216;BME280;65010;50.190;18.930;2023-04-25T00:00:45;97269.25;;;12.99;60.75
76216;BME280;65010;50.190;18.930;2023-04-25T00:03:52;97264.34;;;13.03;60.93
76216;BME280;65010;50.190;18.930;2023-04-25T00:06:59;97264.50;;;13.08;61.20
76216;BME280;65010;50.190;18.930;2023-04-25T00:10:11;97268.13;;;13.14;60.60
76216;BME280;65010;50.190;18.930;2023-04-25T00:13:17;97263.16;;;13.24;60.52
76216;BME280;65010;50.190;18.930;2023-04-25T00:16:24;97270.19;;;13.30;59.66
76216;BME280;65010;50.190;18.930;2023-04-25T00:19:31;97265.94;;;13.29;59.99
76216;BME280;65010;50.190;18.930;2023-04-25T00:22:38;97266.59;;;13.24;60.18
76216;BME280;65010;50.190;18.930;2023-04-25T00:25:47;97271.94;;;13.18;60.12
76216;BME280;65010;50.190;18.930;2023-04-25T00:28:55;97270.75;;;13.14;60.57
76216;BME280;65010;50.190;18.930;2023-04-25T00:32:01;97270.59;;;13.08;60.56
76216;BME280;65010;50.190;18.930;2023-04-25T00:35:08;97264.00;;;12.99;60.92
76216;BME280;65010;50.190;18.930;2023-04-25T00:38:14;97263.75;;;13.01;61.13
76216;BME280;65010;50.190;18.930;2023-04-25T00:41:25;97263.16;;;12.99;61.00
76216;BME280;65010;50.190;18.930;2023-04-25T00:44:34;97269.88;;;12.95;61.28
76216;BME280;65010;50.190;18.930;2023-04-25T00:47:41;97265.09;;;12.85;61.11
76216;BME280;65010;50.190;18.930;2023-04-25T00:50:51;97271.00;;;12.87;60.80
76216;BME280;65010;50.190;18.930;2023-04-25T00:54:00;97270.41;;;12.78;61.22
76216;BME280;65010;50.190;18.930;2023-04-25T00:57:09;97271.47;;;12.77;60.96
76216;BME280;65010;50.190;18.930;2023-04-25T01:00:16;97267.63;;;12.73;61.05
76216;BME280;65010;50.190;18.930;2023-04-25T01:03:23;97268.25;;;12.68;61.36
76216;BME280;65010;50.190;18.930;2023-04-25T01:06:32;97277.19;;;12.67;60.83
76216;BME280;65010;50.190;18.930;2023-04-25T01:09:38;97272.34;;;12.64;61.22
76216;BME280;65010;50.190;18.930;2023-04-25T01:12:47;97275.81;;;12.65;60.92
76216;BME280;65010;50.190;18.930;2023-04-25T01:15:53;97279.31;;;12.52;60.67
76216;BME280;65010;50.190;18.930;2023-04-25T01:18:59;97276.50;;;12.40;60.26
76216;BME280;65010;50.190;18.930;2023-04-25T01:22:08;97283.69;;;12.26;60.04
76216;BME280;65010;50.190;18.930;2023-04-25T01:25:16;97289.63;;;12.15;60.64
76216;BME280;65010;50.190;18.930;2023-04-25T01:28:24;97293.53;;;11.99;60.21
76216;BME280;65010;50.190;18.930;2023-04-25T01:31:30;97299.88;;;11.85;60.11
76216;BME280;65010;50.190;18.930;2023-04-25T01:34:38;97301.09;;;11.82;60.48
76216;BME280;65010;50.190;18.930;2023-04-25T01:37:46;97299.50;;;11.68;60.45
76216;BME280;65010;50.190;18.930;2023-04-25T01:40:53;97296.31;;;11.53;59.67
76216;BME280;65010;50.190;18.930;2023-04-25T01:44:01;97299.16;;;11.44;59.42
76216;BME280;65010;50.190;18.930;2023-04-25T01:47:08;97295.91;;;11.49;59.52
76216;BME280;65010;50.190;18.930;2023-04-25T01:50:17;97293.66;;;11.46;59.31
76216;BME280;65010;50.190;18.930;2023-04-25T01:53:27;97293.88;;;11.38;58.86
76216;BME280;65010;50.190;18.930;2023-04-25T01:56:37;97301.19;;;11.29;59.35
76216;BME280;65010;50.190;18.930;2023-04-25T01:59:47;97309.72;;;11.24;59.48
76216;BME280;65010;50.190;18.930;2023-04-25T02:03:16;97304.22;;;11.26;60.16
76216;BME280;65010;50.190;18.930;2023-04-25T02:06:23;97305.03;;;11.20;59.92
76216;BME280;65010;50.190;18.930;2023-04-25T02:09:34;97310.28;;;11.13;60.26
76216;BME280;65010;50.190;18.930;2023-04-25T02:12:42;97306.84;;;11.13;60.83
76216;BME280;65010;50.190;18.930;2023-04-25T02:16:06;97310.69;;;11.17;60.53
76216;BME280;65010;50.190;18.930;2023-04-25T02:19:14;97315.13;;;11.16;60.82
76216;BME280;65010;50.190;18.930;2023-04-25T02:22:21;97313.69;;;11.14;60.42
76216;BME280;65010;50.190;18.930;2023-04-25T02:25:32;97314.94;;;11.11;60.91
76216;BME280;65010;50.190;18.930;2023-04-25T02:28:38;97321.59;;;11.07;60.69
76216;BME280;65010;50.190;18.930;2023-04-25T02:31:44;97317.38;;;11.06;60.81
76216;BME280;65010;50.190;18.930;2023-04-25T02:34:52;97319.97;;;10.99;59.85
76216;BME280;65010;50.190;18.930;2023-04-25T02:37:58;97314.31;;;10.89;60.18
76216;BME280;65010;50.190;18.930;2023-04-25T02:41:06;97309.44;;;10.79;60.21
76216;BME280;65010;50.190;18.930;2023-04-25T02:44:13;97317.34;;;10.86;60.04
76216;BME280;65010;50.190;18.930;2023-04-25T02:47:19;97323.22;;;10.88;59.61
76216;BME280;65010;50.190;18.930;2023-04-25T02:50:26;97313.69;;;10.94;59.73
76216;BME280;65010;50.190;18.930;2023-04-25T02:53:32;97312.09;;;10.86;59.39
76216;BME280;65010;50.190;18.930;2023-04-25T02:56:41;97311.28;;;10.85;59.23
76216;BME280;65010;50.190;18.930;2023-04-25T02:59:53;97318.97;;;10.87;58.35
76216;BME280;65010;50.190;18.930;2023-04-25T03:02:59;97313.09;;;10.85;57.97
76216;BME280;65010;50.190;18.930;2023-04-25T03:06:05;97321.78;;;10.79;58.37
76216;BME280;65010;50.190;18.930;2023-04-25T03:09:12;97314.50;;;10.81;58.05
76216;BME280;65010;50.190;18.930;2023-04-25T03:12:21;97311.69;;;10.82;58.37
76216;BME280;65010;50.190;18.930;2023-04-25T03:15:30;97311.88;;;10.81;58.06
76216;BME280;65010;50.190;18.930;2023-04-25T03:18:36;97308.84;;;10.91;58.24
76216;BME280;65010;50.190;18.930;2023-04-25T03:21:43;97306.84;;;10.93;58.10
76216;BME280;65010;50.190;18.930;2023-04-25T03:24:50;97313.91;;;10.99;58.00
76216;BME280;65010;50.190;18.930;2023-04-25T03:27:59;97312.47;;;10.89;57.66
76216;BME280;65010;50.190;18.930;2023-04-25T03:31:05;97316.13;;;10.82;57.65
76216;BME280;65010;50.190;18.930;2023-04-25T03:34:12;97322.81;;;10.78;58.09
76216;BME280;65010;50.190;18.930;2023-04-25T03:37:18;97334.69;;;10.74;57.57
76216;BME280;65010;50.190;18.930;2023-04-25T03:40:25;97330.88;;;10.76;57.80
76216;BME280;65010;50.190;18.930;2023-04-25T03:43:44;97332.28;;;10.72;56.95
76216;BME280;65010;50.190;18.930;2023-04-25T03:46:52;97335.91;;;10.64;57.25
76216;BME280;65010;50.190;18.930;2023-04-25T03:50:00;97337.13;;;10.62;57.50
76216;BME280;65010;50.190;18.930;2023-04-25T03:53:06;97336.72;;;10.65;57.89
76216;BME280;65010;50.190;18.930;2023-04-25T03:56:32;97342.59;;;10.74;57.49
76216;BME280;65010;50.190;18.930;2023-04-25T03:59:51;97343.84;;;10.78;56.94
76216;BME280;65010;50.190;18.930;2023-04-25T04:02:57;97346.47;;;10.84;56.83
76216;BME280;65010;50.190;18.930;2023-04-25T04:06:04;97349.09;;;10.84;56.19
76216;BME280;65010;50.190;18.930;2023-04-25T04:09:15;97347.06;;;10.86;56.35
76216;BME280;65010;50.190;18.930;2023-04-25T04:12:23;97354.53;;;10.89;56.89
76216;BME280;65010;50.190;18.930;2023-04-25T04:15:31;97355.34;;;10.83;56.16
76216;BME280;65010;50.190;18.930;2023-04-25T04:18:38;97356.75;;;10.73;55.67
76216;BME280;65010;50.190;18.930;2023-04-25T04:21:44;97362.00;;;10.66;56.42
76216;BME280;65010;50.190;18.930;2023-04-25T04:24:51;97361.97;;;10.59;56.09
76216;BME280;65010;50.190;18.930;2023-04-25T04:28:25;97364.75;;;10.51;56.52
76216;BME280;65010;50.190;18.930;2023-04-25T04:32:07;97361.09;;;10.45;56.54
76216;BME280;65010;50.190;18.930;2023-04-25T04:35:14;97367.38;;;10.44;56.67
76216;BME280;65010;50.190;18.930;2023-04-25T04:38:20;97366.78;;;10.49;57.32
76216;BME280;65010;50.190;18.930;2023-04-25T04:41:31;97363.97;;;10.51;56.16
76216;BME280;65010;50.190;18.930;2023-04-25T04:44:47;97363.59;;;10.54;56.58
76216;BME280;65010;50.190;18.930;2023-04-25T04:48:03;97363.59;;;10.54;56.32
76216;BME280;65010;50.190;18.930;2023-04-25T04:51:23;97364.75;;;10.51;56.71
76216;BME280;65010;50.190;18.930;2023-04-25T04:54:28;97367.00;;;10.54;56.94
76216;BME280;65010;50.190;18.930;2023-04-25T04:58:10;97365.00;;;10.56;57.09
76216;BME280;65010;50.190;18.930;2023-04-25T05:01:28;97370.88;;;10.58;56.74
76216;BME280;65010;50.190;18.930;2023-04-25T05:04:56;97365.84;;;10.70;56.58
76216;BME280;65010;50.190;18.930;2023-04-25T05:08:21;97369.69;;;10.81;56.40
76216;BME280;65010;50.190;18.930;2023-04-25T05:11:46;97358.59;;;10.99;56.51
76216;BME280;65010;50.190;18.930;2023-04-25T05:15:13;97360.81;;;11.02;54.61
76216;BME280;65010;50.190;18.930;2023-04-25T05:18:49;97353.53;;;10.97;55.08
76216;BME280;65010;50.190;18.930;2023-04-25T05:22:20;97362.03;;;10.99;55.27
76216;BME280;65010;50.190;18.930;2023-04-25T05:25:35;97368.72;;;11.02;55.62
76216;BME280;65010;50.190;18.930;2023-04-25T05:29:01;97362.47;;;11.03;55.77
76216;BME280;65010;50.190;18.930;2023-04-25T05:32:34;97359.41;;;10.93;54.48
76216;BME280;65010;50.190;18.930;2023-04-25T05:35:40;97363.25;;;10.97;54.95
76216;BME280;65010;50.190;18.930;2023-04-25T05:38:50;97370.53;;;11.01;54.26
76216;BME280;65010;50.190;18.930;2023-04-25T05:41:56;97370.34;;;11.03;55.02
76216;BME280;65010;50.190;18.930;2023-04-25T05:45:21;97358.03;;;11.10;54.65
76216;BME280;65010;50.190;18.930;2023-04-25T05:48:47;97361.03;;;11.07;53.31
76216;BME280;65010;50.190;18.930;2023-04-25T05:52:11;97371.19;;;11.10;53.87
76216;BME280;65010;50.190;18.930;2023-04-25T05:55:26;97372.97;;;11.03;53.18
76216;BME280;65010;50.190;18.930;2023-04-25T05:58:34;97372.59;;;11.06;53.38
76216;BME280;65010;50.190;18.930;2023-04-25T06:01:41;97373.81;;;11.10;52.21
76216;BME280;65010;50.190;18.930;2023-04-25T06:04:49;97366.91;;;11.09;52.83
76216;BME280;65010;50.190;18.930;2023-04-25T06:07:57;97369.75;;;11.14;52.68
76216;BME280;65010;50.190;18.930;2023-04-25T06:11:07;97369.13;;;10.99;52.11
76216;BME280;65010;50.190;18.930;2023-04-25T06:14:12;97378.84;;;10.98;53.23
76216;BME280;65010;50.190;18.930;2023-04-25T06:17:23;97383.31;;;11.04;53.03
76216;BME280;65010;50.190;18.930;2023-04-25T06:20:29;97380.91;;;11.23;52.55
76216;BME280;65010;50.190;18.930;2023-04-25T06:23:36;97375.03;;;11.27;52.81
76216;BME280;65010;50.190;18.930;2023-04-25T06:26:48;97379.50;;;11.27;52.16
76216;BME280;65010;50.190;18.930;2023-04-25T06:29:56;97376.25;;;11.25;52.35
76216;BME280;65010;50.190;18.930;2023-04-25T06:33:01;97386.81;;;11.38;52.50
76216;BME280;65010;50.190;18.930;2023-04-25T06:36:08;97385.97;;;11.38;51.18
76216;BME280;65010;50.190;18.930;2023-04-25T06:39:15;97384.75;;;11.27;50.34
76216;BME280;65010;50.190;18.930;2023-04-25T06:42:27;97390.63;;;11.36;51.64
76216;BME280;65010;50.190;18.930;2023-04-25T06:45:34;97382.13;;;11.47;51.08
76216;BME280;65010;50.190;18.930;2023-04-25T06:48:43;97383.34;;;11.58;50.01
76216;BME280;65010;50.190;18.930;2023-04-25T06:51:49;97380.50;;;11.59;49.82
76216;BME280;65010;50.190;18.930;2023-04-25T06:54:55;97384.16;;;11.45;50.21
76216;BME280;65010;50.190;18.930;2023-04-25T06:58:15;97372.00;;;11.44;49.13
76216;BME280;65010;50.190;18.930;2023-04-25T07:01:43;97378.28;;;11.56;49.95
76216;BME280;65010;50.190;18.930;2023-04-25T07:04:52;97377.88;;;11.73;49.87
76216;BME280;65010;50.190;18.930;2023-04-25T07:08:03;97381.88;;;11.82;49.52
76216;BME280;65010;50.190;18.930;2023-04-25T07:11:09;97384.69;;;11.94;49.80
76216;BME280;65010;50.190;18.930;2023-04-25T07:14:19;97380.63;;;11.98;48.94
76216;BME280;65010;50.190;18.930;2023-04-25T07:17:24;97377.16;;;12.17;49.66
76216;BME280;65010;50.190;18.930;2023-04-25T07:20:32;97378.09;;;12.36;48.90
76216;BME280;65010;50.190;18.930;2023-04-25T07:23:38;97372.19;;;12.47;48.24
76216;BME280;65010;50.190;18.930;2023-04-25T07:26:50;97374.63;;;12.49;47.81
76216;BME280;65010;50.190;18.930;2023-04-25T07:30:15;97373.56;;;12.57;47.11
76216;BME280;65010;50.190;18.930;2023-04-25T07:33:21;97376.13;;;12.70;46.85
76216;BME280;65010;50.190;18.930;2023-04-25T07:36:27;97380.16;;;12.73;46.05
76216;BME280;65010;50.190;18.930;2023-04-25T07:39:34;97372.94;;;12.61;45.34
76216;BME280;65010;50.190;18.930;2023-04-25T07:42:40;97375.22;;;12.51;45.79
76216;BME280;65010;50.190;18.930;2023-04-25T07:45:54;97381.69;;;12.55;45.19
76216;BME280;65010;50.190;18.930;2023-04-25T07:49:02;97382.09;;;12.52;44.90
76216;BME280;65010;50.190;18.930;2023-04-25T07:52:09;97385.34;;;12.54;44.11
76216;BME280;65010;50.190;18.930;2023-04-25T07:55:21;97385.69;;;12.64;45.95
76216;BME280;65010;50.190;18.930;2023-04-25T07:58:47;97384.13;;;12.95;44.99
76216;BME280;65010;50.190;18.930;2023-04-25T08:01:57;97373.81;;;13.44;43.59
76216;BME280;65010;50.190;18.930;2023-04-25T08:05:05;97372.38;;;13.92;42.93
76216;BME280;65010;50.190;18.930;2023-04-25T08:08:16;97365.13;;;14.24;41.33
76216;BME280;65010;50.190;18.930;2023-04-25T08:11:23;97371.25;;;14.73;40.21
76216;BME280;65010;50.190;18.930;2023-04-25T08:14:30;97372.19;;;15.21;41.17
76216;BME280;65010;50.190;18.930;2023-04-25T08:17:42;97371.88;;;15.41;37.19
76216;BME280;65010;50.190;18.930;2023-04-25T08:20:49;97361.28;;;15.64;39.43
76216;BME280;65010;50.190;18.930;2023-04-25T08:23:56;97371.91;;;16.00;37.03
76216;BME280;65010;50.190;18.930;2023-04-25T08:27:06;97361.00;;;16.25;34.85
76216;BME280;65010;50.190;18.930;2023-04-25T08:30:13;97357.66;;;16.41;36.17
76216;BME280;65010;50.190;18.930;2023-04-25T08:33:23;97364.72;;;16.93;35.66
76216;BME280;65010;50.190;18.930;2023-04-25T08:36:44;97362.75;;;17.51;33.63
76216;BME280;65010;50.190;18.930;2023-04-25T08:40:12;97364.94;;;17.71;33.60
76216;BME280;65010;50.190;18.930;2023-04-25T08:43:31;97359.38;;;17.73;33.46
76216;BME280;65010;50.190;18.930;2023-04-25T08:46:39;97361.28;;;17.60;34.41
76216;BME280;65010;50.190;18.930;2023-04-25T08:50:03;97354.16;;;17.44;34.72
76216;BME280;65010;50.190;18.930;2023-04-25T08:53:12;97365.47;;;17.39;32.91
76216;BME280;65010;50.190;18.930;2023-04-25T08:56:22;97369.16;;;17.21;34.67
76216;BME280;65010;50.190;18.930;2023-04-25T08:59:31;97372.72;;;17.10;32.28
76216;BME280;65010;50.190;18.930;2023-04-25T09:02:42;97366.84;;;17.08;34.08
76216;BME280;65010;50.190;18.930;2023-04-25T09:05:51;97371.50;;;17.01;32.33
76216;BME280;65010;50.190;18.930;2023-04-25T09:09:02;97369.97;;;17.05;33.02
76216;BME280;65010;50.190;18.930;2023-04-25T09:12:10;97376.06;;;16.89;32.84
76216;BME280;65010;50.190;18.930;2023-04-25T09:15:17;97371.75;;;16.59;33.18
76216;BME280;65010;50.190;18.930;2023-04-25T09:18:46;97377.41;;;16.22;34.45
76216;BME280;65010;50.190;18.930;2023-04-25T09:21:58;97375.34;;;16.12;34.69
76216;BME280;65010;50.190;18.930;2023-04-25T09:25:09;97370.38;;;16.27;35.13
76216;BME280;65010;50.190;18.930;2023-04-25T09:28:23;97374.03;;;16.26;35.12
76216;BME280;65010;50.190;18.930;2023-04-25T09:31:34;97380.06;;;16.10;35.59
76216;BME280;65010;50.190;18.930;2023-04-25T09:34:45;97370.41;;;16.04;34.91
76216;BME280;65010;50.190;18.930;2023-04-25T09:37:57;97370.91;;;15.77;34.89
76216;BME280;65010;50.190;18.930;2023-04-25T09:41:30;97374.66;;;15.70;36.32
76216;BME280;65010;50.190;18.930;2023-04-25T09:44:36;97369.38;;;16.05;37.41
76216;BME280;65010;50.190;18.930;2023-04-25T09:47:48;97370.25;;;16.63;36.32
76216;BME280;65010;50.190;18.930;2023-04-25T09:51:07;97369.22;;;16.93;34.15
76216;BME280;65010;50.190;18.930;2023-04-25T09:54:17;97367.94;;;16.95;33.58
76216;BME280;65010;50.190;18.930;2023-04-25T09:57:25;97364.41;;;16.90;32.62
76216;BME280;65010;50.190;18.930;2023-04-25T10:00:34;97371.97;;;16.98;32.78
76216;BME280;65010;50.190;18.930;2023-04-25T10:03:56;97372.66;;;16.93;30.79
76216;BME280;65010;50.190;18.930;2023-04-25T10:07:19;97365.22;;;16.90;31.19
76216;BME280;65010;50.190;18.930;2023-04-25T10:10:32;97361.59;;;16.96;32.24
76216;BME280;65010;50.190;18.930;2023-04-25T10:13:42;97355.88;;;16.88;30.68
76216;BME280;65010;50.190;18.930;2023-04-25T10:16:50;97358.78;;;16.45;31.49
76216;BME280;65010;50.190;18.930;2023-04-25T10:20:01;97368.25;;;16.41;33.16
76216;BME280;65010;50.190;18.930;2023-04-25T10:23:14;97363.63;;;16.37;32.81
76216;BME280;65010;50.190;18.930;2023-04-25T10:26:24;97353.97;;;16.31;31.22
76216;BME280;65010;50.190;18.930;2023-04-25T10:29:32;97361.00;;;16.25;33.59
76216;BME280;65010;50.190;18.930;2023-04-25T10:32:38;97360.09;;;16.31;32.98
76216;BME280;65010;50.190;18.930;2023-04-25T10:35:45;97364.84;;;16.29;31.62
76216;BME280;65010;50.190;18.930;2023-04-25T10:38:52;97361.94;;;16.19;32.84
76216;BME280;65010;50.190;18.930;2023-04-25T10:42:03;97358.53;;;15.95;32.47
76216;BME280;65010;50.190;18.930;2023-04-25T10:45:10;97360.38;;;15.59;31.46
76216;BME280;65010;50.190;18.930;2023-04-25T10:48:27;97355.19;;;15.52;31.78
76216;BME280;65010;50.190;18.930;2023-04-25T10:51:36;97351.72;;;15.40;33.75
76216;BME280;65010;50.190;18.930;2023-04-25T10:54:57;97356.31;;;15.21;32.87
76216;BME280;65010;50.190;18.930;2023-04-25T10:58:06;97352.28;;;15.30;32.86
76216;BME280;65010;50.190;18.930;2023-04-25T11:01:13;97363.03;;;15.47;34.05
76216;BME280;65010;50.190;18.930;2023-04-25T11:04:20;97351.97;;;15.50;32.23
76216;BME280;65010;50.190;18.930;2023-04-25T11:07:34;97350.94;;;15.51;32.17
76216;BME280;65010;50.190;18.930;2023-04-25T11:10:47;97353.44;;;15.34;32.10
76216;BME280;65010;50.190;18.930;2023-04-25T11:13:55;97362.91;;;15.42;31.89
76216;BME280;65010;50.190;18.930;2023-04-25T11:17:02;97368.91;;;15.49;31.99
76216;BME280;65010;50.190;18.930;2023-04-25T11:20:09;97354.59;;;15.38;32.74
76216;BME280;65010;50.190;18.930;2023-04-25T11:23:18;97356.91;;;15.46;33.67
76216;BME280;65010;50.190;18.930;2023-04-25T11:26:24;97362.34;;;15.52;33.69
76216;BME280;65010;50.190;18.930;2023-04-25T11:29:34;97358.53;;;15.47;32.64
76216;BME280;65010;50.190;18.930;2023-04-25T11:32:40;97371.41;;;15.32;32.89
76216;BME280;65010;50.190;18.930;2023-04-25T11:35:48;97369.09;;;15.36;32.77
76216;BME280;65010;50.190;18.930;2023-04-25T11:38:54;97370.84;;;15.42;33.43
76216;BME280;65010;50.190;18.930;2023-04-25T11:42:01;97363.47;;;15.44;34.22
76216;BME280;65010;50.190;18.930;2023-04-25T11:45:18;97364.03;;;15.34;33.08
76216;BME280;65010;50.190;18.930;2023-04-25T11:48:24;97361.81;;;15.07;32.89
76216;BME280;65010;50.190;18.930;2023-04-25T11:51:38;97369.34;;;14.80;33.25
76216;BME280;65010;50.190;18.930;2023-04-25T11:54:46;97361.19;;;14.63;33.53
76216;BME280;65010;50.190;18.930;2023-04-25T11:57:52;97368.88;;;14.65;34.25
76216;BME280;65010;50.190;18.930;2023-04-25T12:01:01;97371.47;;;14.53;34.68
76216;BME280;65010;50.190;18.930;2023-04-25T12:04:11;97366.78;;;14.55;34.40
76216;BME280;65010;50.190;18.930;2023-04-25T12:07:19;97368.03;;;14.53;35.13
76216;BME280;65010;50.190;18.930;2023-04-25T12:10:25;97362.81;;;14.64;35.33
76216;BME280;65010;50.190;18.930;2023-04-25T12:13:32;97367.75;;;14.42;35.08
76216;BME280;65010;50.190;18.930;2023-04-25T12:16:46;97361.16;;;14.33;35.01
76216;BME280;65010;50.190;18.930;2023-04-25T12:19:53;97365.56;;;14.39;35.66
76216;BME280;65010;50.190;18.930;2023-04-25T12:22:58;97364.53;;;14.40;35.79
76216;BME280;65010;50.190;18.930;2023-04-25T12:26:05;97369.78;;;14.59;36.70
76216;BME280;65010;50.190;18.930;2023-04-25T12:29:15;97359.06;;;14.54;34.96
76216;BME280;65010;50.190;18.930;2023-04-25T12:32:25;97369.66;;;14.72;34.40
76216;BME280;65010;50.190;18.930;2023-04-25T12:35:32;97371.63;;;14.77;34.34
76216;BME280;65010;50.190;18.930;2023-04-25T12:38:39;97366.69;;;14.62;35.09
76216;BME280;65010;50.190;18.930;2023-04-25T12:41:46;97374.47;;;14.75;35.54
76216;BME280;65010;50.190;18.930;2023-04-25T12:44:53;97369.22;;;14.87;34.73
76216;BME280;65010;50.190;18.930;2023-04-25T12:48:02;97361.16;;;14.82;35.24
76216;BME280;65010;50.190;18.930;2023-04-25T12:51:09;97359.94;;;14.96;33.99
76216;BME280;65010;50.190;18.930;2023-04-25T12:54:14;97353.94;;;14.89;34.01
76216;BME280;65010;50.190;18.930;2023-04-25T12:57:20;97361.28;;;14.87;34.90
76216;BME280;65010;50.190;18.930;2023-04-25T13:00:26;97359.72;;;14.98;34.33
76216;BME280;65010;50.190;18.930;2023-04-25T13:03:36;97357.53;;;14.95;34.23
76216;BME280;65010;50.190;18.930;2023-04-25T13:06:42;97349.38;;;15.08;34.60
76216;BME280;65010;50.190;18.930;2023-04-25T13:09:50;97346.66;;;15.15;34.10
76216;BME280;65010;50.190;18.930;2023-04-25T13:12:56;97350.34;;;15.25;35.06
76216;BME280;65010;50.190;18.930;2023-04-25T13:16:03;97347.56;;;15.32;34.29
76216;BME280;65010;50.190;18.930;2023-04-25T13:19:12;97342.06;;;15.34;34.62
76216;BME280;65010;50.190;18.930;2023-04-25T13:22:19;97345.72;;;15.21;33.36
76216;BME280;65010;50.190;18.930;2023-04-25T13:25:25;97347.91;;;15.24;34.74
76216;BME280;65010;50.190;18.930;2023-04-25T13:28:31;97346.34;;;15.35;34.38
76216;BME280;65010;50.190;18.930;2023-04-25T13:31:37;97348.06;;;15.53;33.44
76216;BME280;65010;50.190;18.930;2023-04-25T13:34:46;97344.16;;;15.67;34.52
76216;BME280;65010;50.190;18.930;2023-04-25T13:37:52;97344.97;;;15.79;33.71
76216;BME280;65010;50.190;18.930;2023-04-25T13:40:58;97341.59;;;15.96;34.68
76216;BME280;65010;50.190;18.930;2023-04-25T13:44:04;97341.16;;;15.87;32.53
76216;BME280;65010;50.190;18.930;2023-04-25T13:47:11;97348.91;;;15.77;34.16
76216;BME280;65010;50.190;18.930;2023-04-25T13:50:19;97352.34;;;15.77;33.06
76216;BME280;65010;50.190;18.930;2023-04-25T13:53:28;97350.03;;;15.69;32.99
76216;BME280;65010;50.190;18.930;2023-04-25T13:56:33;97349.09;;;15.63;32.77
76216;BME280;65010;50.190;18.930;2023-04-25T13:59:40;97352.09;;;15.67;33.53
76216;BME280;65010;50.190;18.930;2023-04-25T14:02:46;97351.53;;;15.65;33.30
76216;BME280;65010;50.190;18.930;2023-04-25T14:05:55;97347.06;;;15.77;34.27
76216;BME280;65010;50.190;18.930;2023-04-25T14:09:02;97350.47;;;16.13;32.79
76216;BME280;65010;50.190;18.930;2023-04-25T14:12:10;97351.06;;;16.44;31.62
76216;BME280;65010;50.190;18.930;2023-04-25T14:15:16;97345.00;;;16.60;32.01
76216;BME280;65010;50.190;18.930;2023-04-25T14:18:23;97343.97;;;16.90;32.56
76216;BME280;65010;50.190;18.930;2023-04-25T14:21:31;97340.75;;;17.05;30.36
76216;BME280;65010;50.190;18.930;2023-04-25T14:24:38;97339.47;;;16.91;30.59
76216;BME280;65010;50.190;18.930;2023-04-25T14:27:44;97347.47;;;16.79;30.76
76216;BME280;65010;50.190;18.930;2023-04-25T14:30:53;97356.19;;;16.62;31.41
76216;BME280;65010;50.190;18.930;2023-04-25T14:33:58;97353.72;;;16.44;31.54
76216;BME280;65010;50.190;18.930;2023-04-25T14:37:08;97347.91;;;16.06;31.57
76216;BME280;65010;50.190;18.930;2023-04-25T14:40:16;97354.16;;;16.00;32.46
76216;BME280;65010;50.190;18.930;2023-04-25T14:43:25;97346.97;;;16.13;31.69
76216;BME280;65010;50.190;18.930;2023-04-25T14:46:33;97351.72;;;15.99;32.64
76216;BME280;65010;50.190;18.930;2023-04-25T14:49:39;97343.44;;;16.07;32.98
76216;BME280;65010;50.190;18.930;2023-04-25T14:52:48;97350.13;;;16.10;32.77
76216;BME280;65010;50.190;18.930;2023-04-25T14:55:55;97337.44;;;16.12;32.34
76216;BME280;65010;50.190;18.930;2023-04-25T14:59:01;97350.31;;;16.60;33.72
76216;BME280;65010;50.190;18.930;2023-04-25T15:02:08;97343.31;;;16.83;32.59
76216;BME280;65010;50.190;18.930;2023-04-25T15:05:13;97346.41;;;17.09;33.41
76216;BME280;65010;50.190;18.930;2023-04-25T15:08:23;97352.38;;;17.16;31.84
76216;BME280;65010;50.190;18.930;2023-04-25T15:11:29;97355.44;;;17.08;32.06
76216;BME280;65010;50.190;18.930;2023-04-25T15:14:35;97356.28;;;16.96;31.48
76216;BME280;65010;50.190;18.930;2023-04-25T15:17:42;97336.31;;;16.77;32.46
76216;BME280;65010;50.190;18.930;2023-04-25T15:20:49;97345.50;;;16.57;32.62
76216;BME280;65010;50.190;18.930;2023-04-25T15:23:58;97353.91;;;16.54;33.07
76216;BME280;65010;50.190;18.930;2023-04-25T15:27:04;97358.97;;;16.56;32.16
76216;BME280;65010;50.190;18.930;2023-04-25T15:30:12;97355.59;;;16.60;32.37
76216;BME280;65010;50.190;18.930;2023-04-25T15:33:20;97362.69;;;16.43;31.31
76216;BME280;65010;50.190;18.930;2023-04-25T15:36:25;97363.63;;;16.37;32.40
76216;BME280;65010;50.190;18.930;2023-04-25T15:39:34;97361.50;;;16.22;32.24
76216;BME280;65010;50.190;18.930;2023-04-25T15:42:41;97369.84;;;15.90;33.09
76216;BME280;65010;50.190;18.930;2023-04-25T15:45:50;97358.78;;;15.70;33.67
76216;BME280;65010;50.190;18.930;2023-04-25T15:48:56;97370.00;;;15.18;33.70
76216;BME280;65010;50.190;18.930;2023-04-25T15:52:05;97377.56;;;15.14;34.79
76216;BME280;65010;50.190;18.930;2023-04-25T15:55:16;97374.38;;;14.82;34.54
76216;BME280;65010;50.190;18.930;2023-04-25T15:58:23;97375.06;;;14.59;34.95
76216;BME280;65010;50.190;18.930;2023-04-25T16:01:29;97370.53;;;14.47;34.92
76216;BME280;65010;50.190;18.930;2023-04-25T16:04:37;97374.00;;;14.30;36.13
76216;BME280;65010;50.190;18.930;2023-04-25T16:07:44;97366.91;;;14.30;36.23
76216;BME280;65010;50.190;18.930;2023-04-25T16:10:54;97371.13;;;14.31;35.25
76216;BME280;65010;50.190;18.930;2023-04-25T16:14:00;97377.69;;;14.10;35.83
76216;BME280;65010;50.190;18.930;2023-04-25T16:17:07;97373.41;;;14.09;36.68
76216;BME280;65010;50.190;18.930;2023-04-25T16:20:13;97386.50;;;14.22;37.28
76216;BME280;65010;50.190;18.930;2023-04-25T16:23:20;97380.16;;;14.23;35.71
76216;BME280;65010;50.190;18.930;2023-04-25T16:26:30;97377.47;;;14.30;35.83
76216;BME280;65010;50.190;18.930;2023-04-25T16:29:37;97382.28;;;14.33;36.45
76216;BME280;65010;50.190;18.930;2023-04-25T16:32:43;97387.22;;;14.30;36.20